Impacts TAF Board INFO
FOR SITUATIONAL AWARENESS. NOT TO BE USED FOR FLIGHT PLANNING PURPOSES.
IDs:

KSLC - Salt Lake City Intl, UT, US

Issued at 1307 UTC 20 Jan 2017
Updated at 1401 UTC 20 Jan 2017
Potential Impact None Slight Moderate High
Time1354Z 20/14Z 20/15Z 20/16Z 20/17Z 20/18Z 20/19Z 20/20Z 20/21Z 20/22Z 20/23Z 21/00Z 21/01Z 21/02Z
Type OBS PRVL PRVL PRVL PRVL PRVL PRVL PRVL PRVL PRVL PRVL PRVL PRVL PRVL
VIS 1 0.75 0.75 5 5 5 5 5 5 5 5 5 5 5
CIG 3 3 3 35 35 35 40 40 40 40 40 40 40 40
Cover OVC OVC OVC BKN BKN BKN BKN BKN BKN BKN BKN BKN BKN BKN
FltCat LIFR LIFR LIFR MVFR MVFR MVFR MVFR MVFR MVFR MVFR MVFR MVFR MVFR MVFR
WX BR BR BR BR BR BR BR BR BR BR BR BR BR BR
WDir 130 300 300 170 170 170 150 150 150 150 150 150 150 150
WSpd 4 3 3 6 6 6 9 9 9 9 9 9 9 9
WGst -- -- -- -- -- -- -- -- -- -- -- -- -- --

Raw TAF
KSLC 201307Z 2013/2118 30003KT 3/4SM BR OVC003
  FM201600 17006KT 5SM BR SCT007 BKN035
  FM201900 15009KT 5SM BR SCT030 BKN040


Raw METAR
KSLC 201354Z 13004KT 1SM R16L/P6000FT BR OVC003 M01/M02 A2961 RMK AO2 SFC VIS 2 SLP037 T10111017
KSLC 201336Z 10005KT 1SM R16L/2600V5500FT BR OVC003 M01/M02 A2962 RMK AO2 SFC VIS 1 3/4 T10111017
KSLC 201301Z 23003KT 3/4SM R16L/4500VP6000FT BR BKN002 OVC012 M01/M02 A2963 RMK AO2 TWR VIS 1 T10111017
KSLC 201254Z 00000KT 1SM R16L/3000VP6000FT BR BKN003 OVC012 M01/M02 A2962 RMK AO2 SLP040 I1001 T10111017
KSLC 201211Z 26006KT 1/4SM R16L/1800V4000FT FZFG VV002 M02/M02 A2963 RMK AO2 T10171017
KSLC 201201Z 25005KT 1/4SM R16L/1800V2200FT FZFG VV002 M02/M02 A2963 RMK AO2 T10171017
KSLC 201154Z 25005KT 1/4SM R16L/1800V2600FT FZFG VV002 M01/M02 A2963 RMK AO2 SLP045 70014 I1000 I6004 T10111022 11006 21017 58005
KSLC 201141Z 00000KT 1/4SM R16L/1800V3000FT FZFG VV002 M01/M02 A2963 RMK AO2 I1000 T10111017
KSLC 201054Z 29003KT 1/4SM R16L/1600V1800FT FZFG VV002 M01/M02 A2965 RMK AO2 SLP049 I1000 T10111017

METAR Board
Radar Display
Forecast Discussion

FOR SITUATIONAL AWARENESS. NOT TO BE USED FOR FLIGHT PLANNING PURPOSES.

Page loaded:  14:01 UTC  |   06:01 AM Pacific  |   07:01 AM Mountain  |   08:01 AM Central  |   09:01 AM Eastern

 

ADVISORIES

FORECASTS

FORECASTS

OBSERVATIONS

USER TOOLS

ABOUT US